Terminal Aerodrome Forecast
Issued by NWS

Home | Current Version | Previous Version | Text Only | Print | Product List | Glossary On
Versions: 1 2 3 4 5 6 7 8 9 10 11 12 13 14 15 16 17 18 19 20
735
FTUS46 KLOX 301734
TAFVNY
TAF
KVNY 301734Z 3018/3118 VRB05KT P6SM SKC
     FM301900 19010KT P6SM SCT250
     FM302100 01015G25KT P6SM SCT250
     FM310000 36020G30KT P6SM SCT250
     FM310400 36025G35KT P6SM SKC
     FM311000 35020KT P6SM SKC
     FM311600 35012KT P6SM SKC=

USA.gov is the U.S. government's official web portal to all federal, state and local government web resources and services.